sensor_id;sensor_type;location;lat;lon;timestamp;P1;durP1;ratioP1;P2;durP2;ratioP2
13325;SDS011;6732;51.044;3.746;2023-01-29T00:01:39;30.07;;;25.40;;
13325;SDS011;6732;51.044;3.746;2023-01-29T00:04:06;28.77;;;24.27;;
13325;SDS011;6732;51.044;3.746;2023-01-29T00:06:32;30.13;;;25.27;;
13325;SDS011;6732;51.044;3.746;2023-01-29T00:08:57;27.97;;;24.70;;
13325;SDS011;6732;51.044;3.746;2023-01-29T00:11:23;31.00;;;25.53;;
13325;SDS011;6732;51.044;3.746;2023-01-29T00:13:50;29.90;;;26.20;;
13325;SDS011;6732;51.044;3.746;2023-01-29T00:16:16;29.73;;;24.83;;
13325;SDS011;6732;51.044;3.746;2023-01-29T00:18:42;28.10;;;24.80;;
13325;SDS011;6732;51.044;3.746;2023-01-29T00:21:12;29.20;;;23.77;;
13325;SDS011;6732;51.044;3.746;2023-01-29T00:23:40;29.63;;;25.03;;
13325;SDS011;6732;51.044;3.746;2023-01-29T00:26:07;29.70;;;25.27;;
13325;SDS011;6732;51.044;3.746;2023-01-29T00:28:33;29.67;;;24.70;;
13325;SDS011;6732;51.044;3.746;2023-01-29T00:31:09;30.37;;;25.57;;
13325;SDS011;6732;51.044;3.746;2023-01-29T00:33:40;29.10;;;25.27;;
13325;SDS011;6732;51.044;3.746;2023-01-29T00:36:07;30.97;;;25.10;;
13325;SDS011;6732;51.044;3.746;2023-01-29T00:38:35;31.80;;;26.87;;
13325;SDS011;6732;51.044;3.746;2023-01-29T00:41:35;31.77;;;25.60;;
13325;SDS011;6732;51.044;3.746;2023-01-29T00:44:14;33.37;;;25.87;;
13325;SDS011;6732;51.044;3.746;2023-01-29T00:46:58;30.73;;;24.80;;
13325;SDS011;6732;51.044;3.746;2023-01-29T00:49:24;33.57;;;25.87;;
13325;SDS011;6732;51.044;3.746;2023-01-29T00:51:51;29.80;;;25.93;;
13325;SDS011;6732;51.044;3.746;2023-01-29T00:54:35;33.63;;;27.37;;
13325;SDS011;6732;51.044;3.746;2023-01-29T00:57:01;32.50;;;26.63;;
13325;SDS011;6732;51.044;3.746;2023-01-29T00:59:28;29.83;;;24.63;;
13325;SDS011;6732;51.044;3.746;2023-01-29T01:01:55;31.40;;;23.60;;
13325;SDS011;6732;51.044;3.746;2023-01-29T01:04:39;32.27;;;23.83;;
13325;SDS011;6732;51.044;3.746;2023-01-29T01:07:05;30.57;;;23.40;;
13325;SDS011;6732;51.044;3.746;2023-01-29T01:09:33;31.03;;;23.43;;
13325;SDS011;6732;51.044;3.746;2023-01-29T01:12:19;33.73;;;24.30;;
13325;SDS011;6732;51.044;3.746;2023-01-29T01:14:46;32.10;;;25.20;;
13325;SDS011;6732;51.044;3.746;2023-01-29T01:17:12;32.67;;;25.83;;
13325;SDS011;6732;51.044;3.746;2023-01-29T01:19:39;31.23;;;23.90;;
13325;SDS011;6732;51.044;3.746;2023-01-29T01:22:06;33.77;;;24.77;;
13325;SDS011;6732;51.044;3.746;2023-01-29T01:24:31;30.10;;;22.73;;
13325;SDS011;6732;51.044;3.746;2023-01-29T01:26:57;34.40;;;25.33;;
13325;SDS011;6732;51.044;3.746;2023-01-29T01:29:23;33.97;;;26.13;;
13325;SDS011;6732;51.044;3.746;2023-01-29T01:31:51;31.77;;;23.50;;
13325;SDS011;6732;51.044;3.746;2023-01-29T01:34:17;30.57;;;24.33;;
13325;SDS011;6732;51.044;3.746;2023-01-29T01:36:44;33.83;;;23.90;;
13325;SDS011;6732;51.044;3.746;2023-01-29T01:39:09;30.40;;;22.80;;
13325;SDS011;6732;51.044;3.746;2023-01-29T01:41:35;31.77;;;24.93;;
13325;SDS011;6732;51.044;3.746;2023-01-29T01:44:02;30.33;;;24.13;;
13325;SDS011;6732;51.044;3.746;2023-01-29T01:46:30;30.47;;;24.67;;
13325;SDS011;6732;51.044;3.746;2023-01-29T01:49:08;31.03;;;25.80;;
13325;SDS011;6732;51.044;3.746;2023-01-29T01:51:44;33.63;;;26.60;;
13325;SDS011;6732;51.044;3.746;2023-01-29T01:54:16;31.73;;;23.40;;
13325;SDS011;6732;51.044;3.746;2023-01-29T01:56:50;33.00;;;24.77;;
13325;SDS011;6732;51.044;3.746;2023-01-29T01:59:20;33.60;;;24.90;;
13325;SDS011;6732;51.044;3.746;2023-01-29T02:01:48;33.97;;;26.07;;
13325;SDS011;6732;51.044;3.746;2023-01-29T02:04:22;33.03;;;25.53;;
13325;SDS011;6732;51.044;3.746;2023-01-29T02:07:09;31.13;;;25.27;;
13325;SDS011;6732;51.044;3.746;2023-01-29T02:10:05;32.43;;;24.50;;
13325;SDS011;6732;51.044;3.746;2023-01-29T02:12:36;31.50;;;23.37;;
13325;SDS011;6732;51.044;3.746;2023-01-29T02:15:03;33.83;;;24.50;;
13325;SDS011;6732;51.044;3.746;2023-01-29T02:17:30;32.97;;;23.90;;
13325;SDS011;6732;51.044;3.746;2023-01-29T02:34:06;32.97;;;25.33;;
13325;SDS011;6732;51.044;3.746;2023-01-29T02:36:55;33.53;;;24.50;;
13325;SDS011;6732;51.044;3.746;2023-01-29T02:44:39;33.57;;;23.17;;
13325;SDS011;6732;51.044;3.746;2023-01-29T02:47:17;35.20;;;23.50;;
13325;SDS011;6732;51.044;3.746;2023-01-29T02:49:55;31.50;;;23.70;;
13325;SDS011;6732;51.044;3.746;2023-01-29T02:52:37;32.90;;;23.43;;
13325;SDS011;6732;51.044;3.746;2023-01-29T02:55:12;33.17;;;23.30;;
13325;SDS011;6732;51.044;3.746;2023-01-29T02:57:45;32.43;;;23.80;;
13325;SDS011;6732;51.044;3.746;2023-01-29T03:00:17;34.63;;;24.37;;
13325;SDS011;6732;51.044;3.746;2023-01-29T03:02:51;34.37;;;24.50;;
13325;SDS011;6732;51.044;3.746;2023-01-29T03:05:28;30.83;;;23.07;;
13325;SDS011;6732;51.044;3.746;2023-01-29T03:08:03;31.07;;;23.27;;
13325;SDS011;6732;51.044;3.746;2023-01-29T03:15:41;31.87;;;25.30;;
13325;SDS011;6732;51.044;3.746;2023-01-29T03:18:16;31.23;;;22.43;;
13325;SDS011;6732;51.044;3.746;2023-01-29T03:20:46;33.00;;;25.43;;
13325;SDS011;6732;51.044;3.746;2023-01-29T03:23:24;32.63;;;25.33;;
13325;SDS011;6732;51.044;3.746;2023-01-29T03:26:13;33.60;;;25.33;;
13325;SDS011;6732;51.044;3.746;2023-01-29T03:28:59;32.43;;;25.03;;
13325;SDS011;6732;51.044;3.746;2023-01-29T03:31:46;32.23;;;25.30;;
13325;SDS011;6732;51.044;3.746;2023-01-29T03:34:35;33.27;;;26.67;;
13325;SDS011;6732;51.044;3.746;2023-01-29T03:37:14;32.87;;;25.87;;
13325;SDS011;6732;51.044;3.746;2023-01-29T03:39:44;32.27;;;24.97;;
13325;SDS011;6732;51.044;3.746;2023-01-29T03:50:46;30.90;;;22.77;;
13325;SDS011;6732;51.044;3.746;2023-01-29T03:56:03;33.03;;;23.40;;
13325;SDS011;6732;51.044;3.746;2023-01-29T04:01:54;33.73;;;23.20;;
13325;SDS011;6732;51.044;3.746;2023-01-29T04:04:06;32.00;;;24.97;;
13325;SDS011;6732;51.044;3.746;2023-01-29T04:06:53;29.63;;;24.97;;
13325;SDS011;6732;51.044;3.746;2023-01-29T04:09:24;31.20;;;25.37;;
13325;SDS011;6732;51.044;3.746;2023-01-29T04:12:09;33.20;;;22.80;;
13325;SDS011;6732;51.044;3.746;2023-01-29T04:14:37;30.90;;;22.63;;
13325;SDS011;6732;51.044;3.746;2023-01-29T04:17:07;31.17;;;22.87;;
13325;SDS011;6732;51.044;3.746;2023-01-29T04:19:37;31.40;;;22.73;;
13325;SDS011;6732;51.044;3.746;2023-01-29T04:22:05;30.47;;;23.33;;
13325;SDS011;6732;51.044;3.746;2023-01-29T04:24:37;30.90;;;23.70;;
13325;SDS011;6732;51.044;3.746;2023-01-29T04:27:17;29.33;;;22.27;;
13325;SDS011;6732;51.044;3.746;2023-01-29T04:38:19;33.37;;;23.20;;
13325;SDS011;6732;51.044;3.746;2023-01-29T04:41:04;30.47;;;22.33;;
13325;SDS011;6732;51.044;3.746;2023-01-29T04:46:45;33.37;;;25.70;;
13325;SDS011;6732;51.044;3.746;2023-01-29T04:49:44;30.93;;;23.93;;
13325;SDS011;6732;51.044;3.746;2023-01-29T04:52:16;28.73;;;23.77;;
13325;SDS011;6732;51.044;3.746;2023-01-29T04:57:25;29.73;;;24.97;;
13325;SDS011;6732;51.044;3.746;2023-01-29T05:00:02;32.77;;;21.60;;
13325;SDS011;6732;51.044;3.746;2023-01-29T05:02:32;31.40;;;22.03;;
13325;SDS011;6732;51.044;3.746;2023-01-29T05:05:01;31.03;;;21.77;;
13325;SDS011;6732;51.044;3.746;2023-01-29T05:07:30;30.73;;;22.40;;
13325;SDS011;6732;51.044;3.746;2023-01-29T05:09:57;31.00;;;22.83;;
13325;SDS011;6732;51.044;3.746;2023-01-29T05:12:24;30.93;;;22.63;;
13325;SDS011;6732;51.044;3.746;2023-01-29T05:14:52;29.20;;;22.47;;
13325;SDS011;6732;51.044;3.746;2023-01-29T05:17:24;31.70;;;23.43;;
13325;SDS011;6732;51.044;3.746;2023-01-29T05:19:50;31.27;;;23.23;;
13325;SDS011;6732;51.044;3.746;2023-01-29T05:22:16;30.33;;;22.37;;
13325;SDS011;6732;51.044;3.746;2023-01-29T05:24:47;29.43;;;22.57;;
13325;SDS011;6732;51.044;3.746;2023-01-29T05:27:20;33.70;;;23.03;;
13325;SDS011;6732;51.044;3.746;2023-01-29T05:30:10;30.40;;;22.33;;
13325;SDS011;6732;51.044;3.746;2023-01-29T05:32:36;32.07;;;23.47;;
13325;SDS011;6732;51.044;3.746;2023-01-29T05:35:04;35.13;;;23.67;;
13325;SDS011;6732;51.044;3.746;2023-01-29T05:37:30;31.63;;;23.17;;
13325;SDS011;6732;51.044;3.746;2023-01-29T05:39:56;31.97;;;23.03;;
13325;SDS011;6732;51.044;3.746;2023-01-29T05:42:22;30.33;;;22.97;;
13325;SDS011;6732;51.044;3.746;2023-01-29T05:44:48;32.27;;;22.23;;
13325;SDS011;6732;51.044;3.746;2023-01-29T05:47:17;33.27;;;23.30;;
13325;SDS011;6732;51.044;3.746;2023-01-29T05:49:44;30.37;;;22.43;;
13325;SDS011;6732;51.044;3.746;2023-01-29T05:52:10;31.63;;;23.37;;
13325;SDS011;6732;51.044;3.746;2023-01-29T05:54:36;30.53;;;22.13;;
13325;SDS011;6732;51.044;3.746;2023-01-29T05:57:02;32.50;;;24.03;;
13325;SDS011;6732;51.044;3.746;2023-01-29T05:59:28;32.73;;;23.53;;
13325;SDS011;6732;51.044;3.746;2023-01-29T06:01:56;30.67;;;23.23;;
13325;SDS011;6732;51.044;3.746;2023-01-29T06:04:22;32.40;;;23.43;;
13325;SDS011;6732;51.044;3.746;2023-01-29T06:06:48;30.40;;;22.63;;
13325;SDS011;6732;51.044;3.746;2023-01-29T06:09:14;29.83;;;22.33;;
13325;SDS011;6732;51.044;3.746;2023-01-29T06:11:40;31.57;;;23.10;;
13325;SDS011;6732;51.044;3.746;2023-01-29T06:14:06;31.80;;;23.17;;
13325;SDS011;6732;51.044;3.746;2023-01-29T06:16:32;30.33;;;22.50;;
13325;SDS011;6732;51.044;3.746;2023-01-29T06:18:58;31.43;;;22.87;;
13325;SDS011;6732;51.044;3.746;2023-01-29T06:21:24;32.50;;;23.23;;
13325;SDS011;6732;51.044;3.746;2023-01-29T06:23:53;31.27;;;23.23;;
13325;SDS011;6732;51.044;3.746;2023-01-29T06:26:19;30.50;;;23.87;;
13325;SDS011;6732;51.044;3.746;2023-01-29T06:28:47;31.73;;;23.93;;
13325;SDS011;6732;51.044;3.746;2023-01-29T06:31:14;30.67;;;23.60;;
13325;SDS011;6732;51.044;3.746;2023-01-29T06:33:40;31.20;;;23.10;;
13325;SDS011;6732;51.044;3.746;2023-01-29T06:36:06;33.53;;;24.87;;
13325;SDS011;6732;51.044;3.746;2023-01-29T06:38:32;33.40;;;23.70;;
13325;SDS011;6732;51.044;3.746;2023-01-29T06:40:58;30.80;;;22.70;;
13325;SDS011;6732;51.044;3.746;2023-01-29T06:43:24;33.77;;;25.20;;
13325;SDS011;6732;51.044;3.746;2023-01-29T06:45:54;32.63;;;25.07;;
13325;SDS011;6732;51.044;3.746;2023-01-29T06:48:22;33.50;;;26.20;;
13325;SDS011;6732;51.044;3.746;2023-01-29T06:50:49;31.00;;;22.50;;
13325;SDS011;6732;51.044;3.746;2023-01-29T06:53:15;29.83;;;21.00;;
13325;SDS011;6732;51.044;3.746;2023-01-29T06:55:42;28.50;;;21.43;;
13325;SDS011;6732;51.044;3.746;2023-01-29T06:58:16;28.63;;;21.07;;
13325;SDS011;6732;51.044;3.746;2023-01-29T07:00:42;27.53;;;20.33;;
13325;SDS011;6732;51.044;3.746;2023-01-29T07:03:08;31.00;;;25.00;;
13325;SDS011;6732;51.044;3.746;2023-01-29T07:05:35;27.50;;;21.40;;
13325;SDS011;6732;51.044;3.746;2023-01-29T07:08:01;27.13;;;21.73;;
13325;SDS011;6732;51.044;3.746;2023-01-29T07:10:28;25.97;;;19.53;;
13325;SDS011;6732;51.044;3.746;2023-01-29T07:12:54;24.20;;;18.17;;
13325;SDS011;6732;51.044;3.746;2023-01-29T07:15:20;29.23;;;24.63;;
13325;SDS011;6732;51.044;3.746;2023-01-29T07:20:25;25.77;;;19.50;;
13325;SDS011;6732;51.044;3.746;2023-01-29T07:22:53;29.10;;;20.53;;
13325;SDS011;6732;51.044;3.746;2023-01-29T07:25:19;29.70;;;20.63;;
13325;SDS011;6732;51.044;3.746;2023-01-29T07:27:45;26.77;;;19.90;;
13325;SDS011;6732;51.044;3.746;2023-01-29T07:30:12;27.13;;;21.00;;
13325;SDS011;6732;51.044;3.746;2023-01-29T07:32:38;27.03;;;20.30;;
13325;SDS011;6732;51.044;3.746;2023-01-29T07:35:04;28.60;;;21.13;;
13325;SDS011;6732;51.044;3.746;2023-01-29T07:37:30;29.70;;;22.03;;
13325;SDS011;6732;51.044;3.746;2023-01-29T07:39:56;29.23;;;20.37;;
13325;SDS011;6732;51.044;3.746;2023-01-29T07:42:22;26.83;;;19.83;;
13325;SDS011;6732;51.044;3.746;2023-01-29T07:44:49;27.17;;;20.53;;
13325;SDS011;6732;51.044;3.746;2023-01-29T07:47:15;29.80;;;19.97;;
13325;SDS011;6732;51.044;3.746;2023-01-29T07:49:40;27.40;;;20.57;;
13325;SDS011;6732;51.044;3.746;2023-01-29T07:52:06;27.60;;;21.17;;
13325;SDS011;6732;51.044;3.746;2023-01-29T07:54:32;27.20;;;19.97;;
13325;SDS011;6732;51.044;3.746;2023-01-29T07:56:58;27.13;;;19.73;;
13325;SDS011;6732;51.044;3.746;2023-01-29T07:59:24;27.93;;;19.27;;
13325;SDS011;6732;51.044;3.746;2023-01-29T08:01:50;30.10;;;20.43;;
13325;SDS011;6732;51.044;3.746;2023-01-29T08:04:16;29.30;;;20.60;;
13325;SDS011;6732;51.044;3.746;2023-01-29T08:06:42;26.60;;;19.20;;
13325;SDS011;6732;51.044;3.746;2023-01-29T08:09:08;29.60;;;20.37;;
13325;SDS011;6732;51.044;3.746;2023-01-29T08:11:35;26.13;;;19.40;;
13325;SDS011;6732;51.044;3.746;2023-01-29T08:14:01;27.63;;;19.67;;
13325;SDS011;6732;51.044;3.746;2023-01-29T08:16:26;28.20;;;20.03;;
13325;SDS011;6732;51.044;3.746;2023-01-29T08:18:52;25.57;;;19.53;;
13325;SDS011;6732;51.044;3.746;2023-01-29T08:21:18;27.10;;;20.30;;
13325;SDS011;6732;51.044;3.746;2023-01-29T08:23:44;28.43;;;20.37;;
13325;SDS011;6732;51.044;3.746;2023-01-29T08:26:10;29.30;;;20.77;;
13325;SDS011;6732;51.044;3.746;2023-01-29T08:28:36;31.17;;;20.33;;
13325;SDS011;6732;51.044;3.746;2023-01-29T08:31:03;26.40;;;19.97;;
13325;SDS011;6732;51.044;3.746;2023-01-29T08:33:29;26.07;;;19.50;;
13325;SDS011;6732;51.044;3.746;2023-01-29T08:35:55;26.27;;;19.50;;
13325;SDS011;6732;51.044;3.746;2023-01-29T08:38:21;25.60;;;19.27;;
13325;SDS011;6732;51.044;3.746;2023-01-29T08:40:47;24.87;;;18.43;;
13325;SDS011;6732;51.044;3.746;2023-01-29T08:43:14;26.17;;;19.60;;
13325;SDS011;6732;51.044;3.746;2023-01-29T08:45:40;24.60;;;18.07;;
13325;SDS011;6732;51.044;3.746;2023-01-29T08:48:07;26.50;;;18.27;;
13325;SDS011;6732;51.044;3.746;2023-01-29T08:50:34;25.77;;;19.20;;
13325;SDS011;6732;51.044;3.746;2023-01-29T08:53:01;26.53;;;19.30;;
13325;SDS011;6732;51.044;3.746;2023-01-29T08:55:28;27.50;;;19.37;;
13325;SDS011;6732;51.044;3.746;2023-01-29T08:57:54;29.00;;;19.50;;
13325;SDS011;6732;51.044;3.746;2023-01-29T09:00:23;26.83;;;18.97;;
13325;SDS011;6732;51.044;3.746;2023-01-29T09:02:49;26.87;;;19.27;;
13325;SDS011;6732;51.044;3.746;2023-01-29T09:05:15;26.27;;;19.20;;
13325;SDS011;6732;51.044;3.746;2023-01-29T09:07:41;25.90;;;18.90;;
13325;SDS011;6732;51.044;3.746;2023-01-29T09:10:11;25.63;;;18.00;;
13325;SDS011;6732;51.044;3.746;2023-01-29T09:12:37;26.70;;;18.93;;
13325;SDS011;6732;51.044;3.746;2023-01-29T09:15:03;26.83;;;19.23;;
13325;SDS011;6732;51.044;3.746;2023-01-29T09:17:30;25.87;;;18.77;;
13325;SDS011;6732;51.044;3.746;2023-01-29T09:19:55;25.70;;;17.80;;
13325;SDS011;6732;51.044;3.746;2023-01-29T09:22:23;22.77;;;17.67;;
13325;SDS011;6732;51.044;3.746;2023-01-29T09:24:48;24.53;;;18.90;;
13325;SDS011;6732;51.044;3.746;2023-01-29T09:27:14;28.07;;;18.77;;
13325;SDS011;6732;51.044;3.746;2023-01-29T09:29:40;25.70;;;19.03;;
13325;SDS011;6732;51.044;3.746;2023-01-29T09:32:06;24.83;;;18.33;;
13325;SDS011;6732;51.044;3.746;2023-01-29T09:34:32;30.83;;;24.47;;
13325;SDS011;6732;51.044;3.746;2023-01-29T09:36:59;23.30;;;18.17;;
13325;SDS011;6732;51.044;3.746;2023-01-29T09:39:25;25.50;;;19.20;;
13325;SDS011;6732;51.044;3.746;2023-01-29T09:41:55;26.13;;;21.10;;
13325;SDS011;6732;51.044;3.746;2023-01-29T09:47:04;25.90;;;19.40;;
13325;SDS011;6732;51.044;3.746;2023-01-29T09:49:40;25.53;;;17.73;;
13325;SDS011;6732;51.044;3.746;2023-01-29T09:52:15;29.20;;;24.10;;
13325;SDS011;6732;51.044;3.746;2023-01-29T09:57:18;26.37;;;19.77;;
13325;SDS011;6732;51.044;3.746;2023-01-29T09:59:49;32.20;;;27.73;;
13325;SDS011;6732;51.044;3.746;2023-01-29T10:23:59;25.87;;;19.63;;
13325;SDS011;6732;51.044;3.746;2023-01-29T10:26:32;24.63;;;18.93;;
13325;SDS011;6732;51.044;3.746;2023-01-29T10:29:04;28.23;;;21.27;;
13325;SDS011;6732;51.044;3.746;2023-01-29T10:31:32;24.37;;;18.60;;
13325;SDS011;6732;51.044;3.746;2023-01-29T10:36:33;24.07;;;17.83;;
13325;SDS011;6732;51.044;3.746;2023-01-29T10:39:16;25.67;;;19.93;;
13325;SDS011;6732;51.044;3.746;2023-01-29T10:49:49;25.27;;;19.13;;
13325;SDS011;6732;51.044;3.746;2023-01-29T10:52:43;24.93;;;18.10;;
13325;SDS011;6732;51.044;3.746;2023-01-29T11:00:43;24.93;;;18.50;;
13325;SDS011;6732;51.044;3.746;2023-01-29T11:08:17;28.23;;;19.07;;
13325;SDS011;6732;51.044;3.746;2023-01-29T11:10:49;24.30;;;18.40;;
13325;SDS011;6732;51.044;3.746;2023-01-29T11:13:34;27.27;;;19.67;;
13325;SDS011;6732;51.044;3.746;2023-01-29T11:16:07;28.97;;;18.90;;
13325;SDS011;6732;51.044;3.746;2023-01-29T11:18:53;24.97;;;18.80;;
13325;SDS011;6732;51.044;3.746;2023-01-29T11:21:19;26.53;;;18.67;;
13325;SDS011;6732;51.044;3.746;2023-01-29T11:23:45;26.10;;;18.47;;
13325;SDS011;6732;51.044;3.746;2023-01-29T11:26:12;24.50;;;17.83;;
13325;SDS011;6732;51.044;3.746;2023-01-29T11:28:44;24.53;;;17.07;;
13325;SDS011;6732;51.044;3.746;2023-01-29T11:31:25;23.27;;;16.60;;
13325;SDS011;6732;51.044;3.746;2023-01-29T11:34:00;23.73;;;17.60;;
13325;SDS011;6732;51.044;3.746;2023-01-29T11:36:38;21.40;;;16.53;;
13325;SDS011;6732;51.044;3.746;2023-01-29T11:52:20;22.73;;;15.63;;
13325;SDS011;6732;51.044;3.746;2023-01-29T11:54:49;19.67;;;15.13;;
13325;SDS011;6732;51.044;3.746;2023-01-29T11:57:27;20.60;;;15.47;;
13325;SDS011;6732;51.044;3.746;2023-01-29T12:00:00;22.30;;;15.27;;
13325;SDS011;6732;51.044;3.746;2023-01-29T12:02:53;20.77;;;15.90;;
13325;SDS011;6732;51.044;3.746;2023-01-29T12:05:23;22.67;;;16.40;;
13325;SDS011;6732;51.044;3.746;2023-01-29T12:07:51;20.37;;;15.97;;
13325;SDS011;6732;51.044;3.746;2023-01-29T12:13:30;20.83;;;15.43;;
13325;SDS011;6732;51.044;3.746;2023-01-29T12:15:51;19.60;;;14.70;;
13325;SDS011;6732;51.044;3.746;2023-01-29T12:19:05;17.63;;;13.83;;
13325;SDS011;6732;51.044;3.746;2023-01-29T12:21:59;18.77;;;14.10;;
13325;SDS011;6732;51.044;3.746;2023-01-29T12:30:08;18.93;;;14.57;;
13325;SDS011;6732;51.044;3.746;2023-01-29T12:32:43;17.23;;;14.10;;
13325;SDS011;6732;51.044;3.746;2023-01-29T12:38:18;19.30;;;14.83;;
13325;SDS011;6732;51.044;3.746;2023-01-29T12:40:47;18.87;;;14.23;;
13325;SDS011;6732;51.044;3.746;2023-01-29T12:43:41;18.07;;;14.30;;
13325;SDS011;6732;51.044;3.746;2023-01-29T12:46:27;21.00;;;14.73;;
13325;SDS011;6732;51.044;3.746;2023-01-29T12:48:57;20.00;;;15.20;;
13325;SDS011;6732;51.044;3.746;2023-01-29T12:51:30;19.93;;;15.33;;
13325;SDS011;6732;51.044;3.746;2023-01-29T12:54:03;24.57;;;15.60;;
13325;SDS011;6732;51.044;3.746;2023-01-29T12:56:45;21.53;;;16.13;;
13325;SDS011;6732;51.044;3.746;2023-01-29T13:01:51;21.90;;;16.07;;
13325;SDS011;6732;51.044;3.746;2023-01-29T13:05:06;21.60;;;16.17;;
13325;SDS011;6732;51.044;3.746;2023-01-29T13:07:35;21.13;;;15.67;;
13325;SDS011;6732;51.044;3.746;2023-01-29T13:10:08;22.97;;;16.47;;
13325;SDS011;6732;51.044;3.746;2023-01-29T13:12:39;21.60;;;15.73;;
13325;SDS011;6732;51.044;3.746;2023-01-29T13:15:23;20.33;;;15.30;;
13325;SDS011;6732;51.044;3.746;2023-01-29T13:18:20;22.40;;;16.07;;
13325;SDS011;6732;51.044;3.746;2023-01-29T13:21:12;21.23;;;15.40;;
13325;SDS011;6732;51.044;3.746;2023-01-29T13:23:50;23.67;;;16.20;;
13325;SDS011;6732;51.044;3.746;2023-01-29T13:26:19;23.53;;;16.93;;
13325;SDS011;6732;51.044;3.746;2023-01-29T13:28:53;23.70;;;16.87;;
13325;SDS011;6732;51.044;3.746;2023-01-29T13:31:22;24.23;;;17.47;;
13325;SDS011;6732;51.044;3.746;2023-01-29T13:34:07;22.27;;;16.50;;
13325;SDS011;6732;51.044;3.746;2023-01-29T13:36:44;22.23;;;16.60;;
13325;SDS011;6732;51.044;3.746;2023-01-29T13:39:18;24.03;;;17.73;;
13325;SDS011;6732;51.044;3.746;2023-01-29T13:41:48;25.23;;;17.87;;
13325;SDS011;6732;51.044;3.746;2023-01-29T13:44:17;24.10;;;17.50;;
13325;SDS011;6732;51.044;3.746;2023-01-29T13:46:52;25.07;;;18.53;;
13325;SDS011;6732;51.044;3.746;2023-01-29T13:54:59;25.20;;;17.80;;
13325;SDS011;6732;51.044;3.746;2023-01-29T13:57:47;24.50;;;17.60;;
13325;SDS011;6732;51.044;3.746;2023-01-29T14:10:42;22.80;;;17.33;;
13325;SDS011;6732;51.044;3.746;2023-01-29T14:15:42;24.57;;;17.63;;
13325;SDS011;6732;51.044;3.746;2023-01-29T14:20:52;22.97;;;17.53;;
13325;SDS011;6732;51.044;3.746;2023-01-29T14:29:00;25.20;;;18.07;;
13325;SDS011;6732;51.044;3.746;2023-01-29T14:31:42;23.67;;;18.43;;
13325;SDS011;6732;51.044;3.746;2023-01-29T14:34:34;26.13;;;18.43;;
13325;SDS011;6732;51.044;3.746;2023-01-29T14:39:58;23.73;;;17.87;;
13325;SDS011;6732;51.044;3.746;2023-01-29T14:42:36;25.30;;;18.37;;
13325;SDS011;6732;51.044;3.746;2023-01-29T14:47:50;25.60;;;20.90;;
13325;SDS011;6732;51.044;3.746;2023-01-29T14:55:40;25.07;;;18.07;;
13325;SDS011;6732;51.044;3.746;2023-01-29T14:58:13;23.63;;;17.90;;
13325;SDS011;6732;51.044;3.746;2023-01-29T15:00:42;22.53;;;17.13;;
13325;SDS011;6732;51.044;3.746;2023-01-29T15:03:11;24.73;;;18.87;;
13325;SDS011;6732;51.044;3.746;2023-01-29T15:05:43;28.20;;;18.77;;
13325;SDS011;6732;51.044;3.746;2023-01-29T15:08:15;26.80;;;18.70;;
13325;SDS011;6732;51.044;3.746;2023-01-29T15:10:45;26.07;;;18.70;;
13325;SDS011;6732;51.044;3.746;2023-01-29T15:14:00;22.93;;;17.63;;
13325;SDS011;6732;51.044;3.746;2023-01-29T15:16:45;23.23;;;17.77;;
13325;SDS011;6732;51.044;3.746;2023-01-29T15:19:27;22.43;;;17.33;;
13325;SDS011;6732;51.044;3.746;2023-01-29T15:22:04;23.43;;;18.33;;
13325;SDS011;6732;51.044;3.746;2023-01-29T15:24:32;23.73;;;17.63;;
13325;SDS011;6732;51.044;3.746;2023-01-29T15:26:58;20.40;;;17.13;;
13325;SDS011;6732;51.044;3.746;2023-01-29T15:29:26;23.10;;;17.47;;
13325;SDS011;6732;51.044;3.746;2023-01-29T15:31:53;22.27;;;17.10;;
13325;SDS011;6732;51.044;3.746;2023-01-29T15:34:20;21.40;;;16.90;;
13325;SDS011;6732;51.044;3.746;2023-01-29T15:36:47;23.03;;;17.00;;
13325;SDS011;6732;51.044;3.746;2023-01-29T15:39:15;21.80;;;16.73;;
13325;SDS011;6732;51.044;3.746;2023-01-29T15:41:48;22.90;;;16.33;;
13325;SDS011;6732;51.044;3.746;2023-01-29T15:44:35;21.30;;;17.07;;
13325;SDS011;6732;51.044;3.746;2023-01-29T15:47:08;21.30;;;15.97;;
13325;SDS011;6732;51.044;3.746;2023-01-29T15:49:35;19.70;;;16.57;;
13325;SDS011;6732;51.044;3.746;2023-01-29T15:52:07;20.07;;;16.10;;
13325;SDS011;6732;51.044;3.746;2023-01-29T15:54:40;22.23;;;17.07;;
13325;SDS011;6732;51.044;3.746;2023-01-29T15:57:11;21.87;;;16.90;;
13325;SDS011;6732;51.044;3.746;2023-01-29T15:59:46;23.17;;;16.63;;
13325;SDS011;6732;51.044;3.746;2023-01-29T16:04:59;22.37;;;16.13;;
13325;SDS011;6732;51.044;3.746;2023-01-29T16:07:26;23.13;;;17.13;;
13325;SDS011;6732;51.044;3.746;2023-01-29T16:09:53;21.27;;;16.20;;
13325;SDS011;6732;51.044;3.746;2023-01-29T16:12:20;21.63;;;16.23;;
13325;SDS011;6732;51.044;3.746;2023-01-29T16:14:47;23.17;;;17.77;;
13325;SDS011;6732;51.044;3.746;2023-01-29T16:19:54;19.57;;;16.23;;
13325;SDS011;6732;51.044;3.746;2023-01-29T16:22:24;22.07;;;17.03;;
13325;SDS011;6732;51.044;3.746;2023-01-29T16:24:54;22.33;;;16.93;;
13325;SDS011;6732;51.044;3.746;2023-01-29T16:27:21;23.00;;;17.23;;
13325;SDS011;6732;51.044;3.746;2023-01-29T16:29:49;22.57;;;18.47;;
13325;SDS011;6732;51.044;3.746;2023-01-29T16:32:15;23.90;;;17.70;;
13325;SDS011;6732;51.044;3.746;2023-01-29T16:34:45;22.60;;;16.87;;
13325;SDS011;6732;51.044;3.746;2023-01-29T16:37:17;21.80;;;17.03;;
13325;SDS011;6732;51.044;3.746;2023-01-29T16:39:47;24.53;;;17.57;;
13325;SDS011;6732;51.044;3.746;2023-01-29T16:49:55;24.27;;;17.90;;
13325;SDS011;6732;51.044;3.746;2023-01-29T16:54:53;26.57;;;18.07;;
13325;SDS011;6732;51.044;3.746;2023-01-29T16:57:24;24.20;;;17.77;;
13325;SDS011;6732;51.044;3.746;2023-01-29T16:59:56;24.63;;;18.03;;
13325;SDS011;6732;51.044;3.746;2023-01-29T17:05:01;23.07;;;17.57;;
13325;SDS011;6732;51.044;3.746;2023-01-29T17:07:29;22.70;;;17.57;;
13325;SDS011;6732;51.044;3.746;2023-01-29T17:09:58;21.53;;;17.07;;
13325;SDS011;6732;51.044;3.746;2023-01-29T17:12:26;23.50;;;17.93;;
13325;SDS011;6732;51.044;3.746;2023-01-29T17:15:01;23.47;;;17.37;;
13325;SDS011;6732;51.044;3.746;2023-01-29T17:17:49;22.60;;;17.17;;
13325;SDS011;6732;51.044;3.746;2023-01-29T17:20:15;22.80;;;17.00;;
13325;SDS011;6732;51.044;3.746;2023-01-29T17:22:41;22.37;;;16.87;;
13325;SDS011;6732;51.044;3.746;2023-01-29T17:25:12;25.20;;;17.63;;
13325;SDS011;6732;51.044;3.746;2023-01-29T17:27:41;24.77;;;17.93;;
13325;SDS011;6732;51.044;3.746;2023-01-29T17:30:13;25.37;;;17.63;;
13325;SDS011;6732;51.044;3.746;2023-01-29T17:32:40;25.20;;;17.60;;
13325;SDS011;6732;51.044;3.746;2023-01-29T17:35:07;24.97;;;17.53;;
13325;SDS011;6732;51.044;3.746;2023-01-29T17:37:37;25.13;;;17.60;;
13325;SDS011;6732;51.044;3.746;2023-01-29T17:40:07;22.27;;;17.57;;
13325;SDS011;6732;51.044;3.746;2023-01-29T17:42:41;21.73;;;17.50;;
13325;SDS011;6732;51.044;3.746;2023-01-29T17:45:07;25.40;;;17.97;;
13325;SDS011;6732;51.044;3.746;2023-01-29T17:47:35;22.70;;;16.87;;
13325;SDS011;6732;51.044;3.746;2023-01-29T17:50:00;24.27;;;18.63;;
13325;SDS011;6732;51.044;3.746;2023-01-29T17:52:26;26.27;;;17.33;;
13325;SDS011;6732;51.044;3.746;2023-01-29T17:54:53;23.73;;;18.03;;
13325;SDS011;6732;51.044;3.746;2023-01-29T17:57:18;23.93;;;17.90;;
13325;SDS011;6732;51.044;3.746;2023-01-29T17:59:44;24.20;;;18.57;;
13325;SDS011;6732;51.044;3.746;2023-01-29T18:02:11;22.77;;;17.30;;
13325;SDS011;6732;51.044;3.746;2023-01-29T18:04:37;22.60;;;16.83;;